createdAt,value
2019-05-13T00:02:14.288Z,92095.53
2019-05-13T00:04:44.237Z,92095.44
2019-05-13T00:07:13.666Z,92102.55
2019-05-13T00:09:44.237Z,92097.12
2019-05-13T00:12:13.826Z,92091.59
2019-05-13T00:14:43.454Z,92088.03
2019-05-13T00:17:14.604Z,92098.30
2019-05-13T00:19:44.317Z,92093.88
2019-05-13T00:22:14.138Z,92096.77
2019-05-13T00:24:44.326Z,92099.97
2019-05-13T00:27:14.219Z,92097.36
2019-05-13T00:29:44.401Z,92101.03
2019-05-13T00:32:14.017Z,92100.98
2019-05-13T00:35:03.819Z,92102.63
2019-05-13T00:37:51.106Z,92102.21
2019-05-13T00:40:39.374Z,92097.52
2019-05-13T00:43:27.588Z,92094.33
2019-05-13T00:46:15.826Z,92099.52
2019-05-13T00:49:04.742Z,92095.42
2019-05-13T00:51:53.890Z,92095.94
2019-05-13T00:54:44.181Z,92097.78
2019-05-13T00:57:31.631Z,92104.25
2019-05-13T01:00:20.280Z,92092.97
2019-05-13T01:03:08.091Z,92091.80
2019-05-13T01:05:56.135Z,92088.75
2019-05-13T01:08:44.554Z,92092.05
2019-05-13T01:11:34.297Z,92089.69
2019-05-13T01:14:23.508Z,92093.67
2019-05-13T01:17:14.175Z,92101.43
2019-05-13T01:20:03.984Z,92100.54
2019-05-13T01:22:51.063Z,92100.86
2019-05-13T01:25:39.477Z,92099.83
2019-05-13T01:28:27.920Z,92104.50
2019-05-13T01:31:16.527Z,92101.55
2019-05-13T01:34:07.072Z,92104.56
2019-05-13T01:36:55.104Z,92107.09
2019-05-13T01:39:43.752Z,92100.88
2019-05-13T01:42:33.656Z,92097.02
2019-05-13T01:45:24.075Z,92095.77
2019-05-13T01:48:14.210Z,92100.55
2019-05-13T01:51:03.572Z,92096.30
2019-05-13T01:53:52.880Z,92091.84
2019-05-13T01:56:39.891Z,92100.69
2019-05-13T01:59:28.087Z,92097.31
2019-05-13T02:02:17.004Z,92097.05
2019-05-13T02:05:05.519Z,92095.23
2019-05-13T02:07:59.829Z,92096.89
2019-05-13T02:10:56.335Z,92102.43
2019-05-13T02:13:44.700Z,92102.42
2019-05-13T02:16:33.930Z,92101.16
2019-05-13T02:19:24.291Z,92106.66
2019-05-13T02:22:14.399Z,92109.20
2019-05-13T02:25:00.998Z,92104.89
2019-05-13T02:27:49.484Z,92102.13
2019-05-13T02:30:37.870Z,92104.33
2019-05-13T02:33:25.956Z,92102.48
2019-05-13T02:36:14.322Z,92097.57
2019-05-13T02:39:02.718Z,92102.48
2019-05-13T02:41:52.736Z,92102.16
2019-05-13T02:44:43.471Z,92096.09
2019-05-13T02:47:33.091Z,92094.83
2019-05-13T02:50:22.337Z,92107.44
2019-05-13T02:53:08.908Z,92104.63
2019-05-13T02:55:57.396Z,92107.42
2019-05-13T02:58:46.024Z,92109.86
2019-05-13T03:01:34.461Z,92116.61
2019-05-13T03:04:23.411Z,92117.38
2019-05-13T03:07:11.969Z,92112.77
2019-05-13T03:10:03.968Z,92105.23
2019-05-13T03:12:53.160Z,92105.22
2019-05-13T03:16:04.824Z,92107.90
2019-05-13T03:18:52.713Z,92104.37
2019-05-13T03:21:43.003Z,92105.50
2019-05-13T03:24:32.938Z,92106.50
2019-05-13T03:27:20.701Z,92104.73
2019-05-13T03:30:08.733Z,92114.76
2019-05-13T03:33:02.074Z,92124.09
2019-05-13T03:35:46.534Z,92132.36
2019-05-13T03:38:53.757Z,92139.88
2019-05-13T03:41:26.970Z,92138.41
2019-05-13T03:44:16.733Z,92137.74
2019-05-13T03:47:05.413Z,92145.02
2019-05-13T03:49:56.197Z,92148.88
2019-05-13T03:52:43.891Z,92146.49
2019-05-13T03:55:34.138Z,92148.80
2019-05-13T03:58:23.909Z,92142.28
2019-05-13T04:01:13.303Z,92142.59
2019-05-13T04:04:03.238Z,92145.16
2019-05-13T04:06:53.108Z,92148.56
2019-05-13T04:09:42.540Z,92141.55
2019-05-13T04:12:33.348Z,92153.89
2019-05-13T04:15:23.456Z,92151.00
2019-05-13T04:18:12.504Z,92150.91
2019-05-13T04:21:02.801Z,92142.36
2019-05-13T04:23:49.155Z,92149.09
2019-05-13T04:26:37.617Z,92142.86
2019-05-13T04:29:25.601Z,92141.17
2019-05-13T04:32:14.439Z,92134.67
2019-05-13T04:35:03.798Z,92125.67
2019-05-13T04:37:52.905Z,92134.27
2019-05-13T04:40:42.442Z,92126.70
2019-05-13T04:43:34.589Z,92126.00
2019-05-13T04:46:22.727Z,92129.04
2019-05-13T04:49:12.409Z,92131.73
2019-05-13T04:52:02.871Z,92139.12
2019-05-13T04:54:48.324Z,92136.33
2019-05-13T04:57:36.700Z,92135.87
2019-05-13T05:00:50.117Z,92138.20
2019-05-13T05:03:45.968Z,92138.77
2019-05-13T05:06:53.449Z,92147.52
2019-05-13T05:10:13.089Z,92137.97
2019-05-13T05:13:09.099Z,92146.59
2019-05-13T05:16:14.144Z,92143.34
2019-05-13T05:19:06.955Z,92137.41
2019-05-13T05:21:58.319Z,92130.05
2019-05-13T05:25:06.113Z,92127.46
2019-05-13T05:28:06.100Z,92124.50
2019-05-13T05:31:11.610Z,92134.31
2019-05-13T05:34:18.294Z,92145.31
2019-05-13T05:37:14.456Z,92146.45
2019-05-13T05:40:03.810Z,92146.39
2019-05-13T05:42:52.978Z,92136.39
2019-05-13T05:45:41.401Z,92128.58
2019-05-13T05:48:31.496Z,92135.14
2019-05-13T05:51:21.976Z,92137.00
2019-05-13T05:54:14.308Z,92138.70
2019-05-13T05:57:01.275Z,92144.53
2019-05-13T05:59:51.743Z,92147.86
2019-05-13T06:02:42.522Z,92148.77
2019-05-13T06:05:12.640Z,92146.14
2019-05-13T06:07:42.264Z,92149.91
2019-05-13T06:10:11.848Z,92145.89
2019-05-13T06:12:42.396Z,92154.38
2019-05-13T06:15:12.386Z,92157.83
2019-05-13T06:17:41.809Z,92155.75
2019-05-13T06:20:13.433Z,92159.31
2019-05-13T06:22:42.636Z,92151.52
2019-05-13T06:25:14.512Z,92150.84
2019-05-13T06:27:43.176Z,92157.91
2019-05-13T06:30:12.792Z,92152.11
2019-05-13T06:32:42.241Z,92148.83
2019-05-13T06:35:11.986Z,92147.30
2019-05-13T06:37:41.582Z,92142.29
2019-05-13T06:40:12.380Z,92150.59
2019-05-13T06:42:41.938Z,92144.37
2019-05-13T06:45:12.442Z,92143.66
2019-05-13T06:47:41.831Z,92151.06
2019-05-13T06:50:11.811Z,92156.05
2019-05-13T06:52:42.426Z,92149.77
2019-05-13T06:55:12.094Z,92148.20
2019-05-13T06:57:42.293Z,92148.42
2019-05-13T07:00:12.356Z,92156.59
2019-05-13T07:02:42.745Z,92152.98
2019-05-13T07:05:12.265Z,92148.78
2019-05-13T07:07:42.364Z,92142.32
2019-05-13T07:10:12.689Z,92144.50
2019-05-13T07:12:42.408Z,92153.99
2019-05-13T07:15:11.748Z,92153.26
2019-05-13T07:17:41.691Z,92146.73
2019-05-13T07:20:11.755Z,92143.48
2019-05-13T07:22:42.208Z,92143.52
2019-05-13T07:25:11.858Z,92148.95
2019-05-13T07:27:42.369Z,92142.88
2019-05-13T07:30:11.909Z,92138.68
2019-05-13T07:32:42.052Z,92148.70
2019-05-13T07:35:14.144Z,92145.69
2019-05-13T07:37:42.611Z,92142.66
2019-05-13T07:40:12.240Z,92142.44
2019-05-13T07:42:42.044Z,92149.65
2019-05-13T07:45:12.124Z,92142.94
2019-05-13T07:47:42.036Z,92142.98
2019-05-13T07:50:12.670Z,92135.54
2019-05-13T07:52:42.455Z,92134.08
2019-05-13T07:55:12.168Z,92139.95
2019-05-13T07:57:42.416Z,92136.20
2019-05-13T08:00:12.706Z,92130.52
2019-05-13T08:02:42.073Z,92128.77
2019-05-13T08:05:12.150Z,92128.77
2019-05-13T08:07:42.180Z,92129.47
2019-05-13T08:10:11.993Z,92129.30
2019-05-13T08:12:41.371Z,92126.92
2019-05-13T08:15:12.157Z,92135.00
2019-05-13T08:17:47.292Z,92131.50
2019-05-13T08:20:12.797Z,92129.25
2019-05-13T08:22:42.589Z,92129.80
2019-05-13T08:25:12.679Z,92133.76
2019-05-13T08:27:42.263Z,92125.72
2019-05-13T08:30:12.117Z,92126.38
2019-05-13T08:32:42.060Z,92129.34
2019-05-13T08:35:12.497Z,92131.80
2019-05-13T08:37:41.991Z,92134.00
2019-05-13T08:40:12.211Z,92140.25
2019-05-13T08:42:41.706Z,92134.29
2019-05-13T08:45:12.120Z,92120.86
2019-05-13T08:47:42.122Z,92118.19
2019-05-13T08:50:12.321Z,92109.02
2019-05-13T08:52:42.297Z,92111.70
2019-05-13T08:55:15.486Z,92108.03
2019-05-13T08:57:42.791Z,92108.59
2019-05-13T09:00:13.698Z,92110.91
2019-05-13T09:02:43.610Z,92114.98
2019-05-13T09:05:14.290Z,92127.53
2019-05-13T09:07:43.558Z,92117.09
2019-05-13T09:10:12.933Z,92129.07
2019-05-13T09:12:43.414Z,92143.52
2019-05-13T09:15:12.825Z,92154.56
2019-05-13T09:17:42.563Z,92153.83
2019-05-13T09:20:12.183Z,92160.42
2019-05-13T09:22:41.435Z,92158.16
2019-05-13T09:25:12.495Z,92161.20
2019-05-13T09:27:42.492Z,92161.19
2019-05-13T09:30:12.400Z,92155.26
2019-05-13T09:32:42.568Z,92149.27
2019-05-13T09:35:12.379Z,92156.63
2019-05-13T09:37:42.309Z,92158.67
2019-05-13T09:40:11.800Z,92150.05
2019-05-13T09:42:49.257Z,92143.17
2019-05-13T09:45:12.431Z,92147.81
2019-05-13T09:47:42.004Z,92144.55
2019-05-13T09:50:28.590Z,92143.50
2019-05-13T09:52:48.172Z,92138.59
2019-05-13T09:55:26.300Z,92138.14
2019-05-13T09:57:48.600Z,92142.18
2019-05-13T10:00:18.128Z,92144.84
2019-05-13T10:02:47.367Z,92149.75
2019-05-13T10:05:16.622Z,92138.81
2019-05-13T10:07:45.896Z,92139.94
2019-05-13T10:10:16.636Z,92130.97
2019-05-13T10:13:07.052Z,92131.61
2019-05-13T10:15:16.858Z,92139.09
2019-05-13T10:17:46.090Z,92130.87
2019-05-13T10:20:16.769Z,92123.35
2019-05-13T10:22:46.049Z,92130.26
2019-05-13T10:25:16.789Z,92141.52
2019-05-13T10:27:46.287Z,92129.81
2019-05-13T10:30:15.985Z,92129.77
2019-05-13T10:32:45.217Z,92125.19
2019-05-13T10:35:14.860Z,92115.41
2019-05-13T10:37:45.061Z,92105.35
2019-05-13T10:40:15.001Z,92121.16
2019-05-13T10:42:44.251Z,92116.34
2019-05-13T10:45:13.565Z,92118.42
2019-05-13T10:47:42.808Z,92109.80
2019-05-13T10:50:12.244Z,92109.78
2019-05-13T10:52:42.706Z,92106.75
2019-05-13T10:55:12.975Z,92106.19
2019-05-13T10:57:42.610Z,92107.17
2019-05-13T11:00:12.395Z,92109.89
2019-05-13T11:02:42.384Z,92109.31
2019-05-13T11:05:12.560Z,92104.63
2019-05-13T11:07:42.203Z,92097.43
2019-05-13T11:10:13.381Z,92095.34
2019-05-13T11:12:42.903Z,92104.71
2019-05-13T11:15:12.149Z,92107.27
2019-05-13T11:17:42.734Z,92100.47
2019-05-13T11:20:12.588Z,92099.39
2019-05-13T11:22:42.055Z,92103.56
2019-05-13T11:25:12.337Z,92099.05
2019-05-13T11:27:42.343Z,92103.70
2019-05-13T11:30:11.903Z,92101.11
2019-05-13T11:32:42.686Z,92100.76
2019-05-13T11:35:13.091Z,92107.31
2019-05-13T11:37:43.548Z,92108.32
2019-05-13T11:40:14.228Z,92111.77
2019-05-13T11:42:43.531Z,92111.55
2019-05-13T11:45:13.172Z,92113.04
2019-05-13T11:47:42.469Z,92110.27
2019-05-13T11:50:12.195Z,92102.69
2019-05-13T11:52:42.451Z,92102.50
2019-05-13T11:55:13.133Z,92103.48
2019-05-13T11:57:44.421Z,92095.81
2019-05-13T12:00:14.214Z,92103.01
2019-05-13T12:02:49.857Z,92103.42
2019-05-13T12:05:15.792Z,92107.98
2019-05-13T12:07:45.039Z,92102.94
2019-05-13T12:10:14.409Z,92102.38
2019-05-13T12:12:44.599Z,92099.59
2019-05-13T12:15:28.820Z,92093.91
2019-05-13T12:17:45.245Z,92091.23
2019-05-13T12:20:14.481Z,92098.14
2019-05-13T12:22:44.034Z,92101.98
2019-05-13T12:25:14.104Z,92100.38
2019-05-13T12:27:43.462Z,92101.35
2019-05-13T12:30:12.803Z,92102.13
2019-05-13T12:32:43.734Z,92093.94
2019-05-13T12:35:13.671Z,92089.63
2019-05-13T12:37:43.166Z,92088.31
2019-05-13T12:40:12.531Z,92091.02
2019-05-13T12:42:46.767Z,92088.61
2019-05-13T12:45:14.385Z,92088.00
2019-05-13T12:47:43.543Z,92093.97
2019-05-13T12:50:13.846Z,92078.88
2019-05-13T12:52:43.959Z,92083.85
2019-05-13T12:55:14.134Z,92072.53
2019-05-13T12:57:43.897Z,92067.42
2019-05-13T13:00:13.431Z,92068.58
2019-05-13T13:02:49.969Z,92065.55
2019-05-13T13:05:19.905Z,92069.16
2019-05-13T13:08:12.075Z,92070.44
2019-05-13T13:10:16.785Z,92062.16
2019-05-13T13:12:47.199Z,92053.61
2019-05-13T13:15:36.433Z,92050.97
2019-05-13T13:17:47.800Z,92051.27
2019-05-13T13:20:17.346Z,92053.96
2019-05-13T13:22:46.592Z,92056.37
2019-05-13T13:25:16.343Z,92061.72
2019-05-13T13:28:08.866Z,92062.25
2019-05-13T13:30:16.551Z,92062.87
2019-05-13T13:32:46.458Z,92059.34
2019-05-13T13:35:16.092Z,92048.14
2019-05-13T13:37:46.216Z,92032.97
2019-05-13T13:40:24.478Z,92022.14
2019-05-13T13:42:53.051Z,92015.54
2019-05-13T13:45:22.855Z,92022.59
2019-05-13T13:48:02.406Z,92029.58
2019-05-13T13:52:53.754Z,92029.30
2019-05-13T13:55:25.834Z,92030.53
2019-05-13T13:57:56.786Z,92039.55
2019-05-13T14:00:38.626Z,92040.62
2019-05-13T14:02:56.224Z,92042.22
2019-05-13T14:05:25.623Z,92038.19
2019-05-13T14:06:58.943Z,92036.08
2019-05-13T14:07:54.885Z,92040.20
2019-05-13T14:10:24.700Z,92051.09
2019-05-13T14:12:54.071Z,92046.77
2019-05-13T14:15:23.311Z,92052.31
2019-05-13T14:17:52.587Z,92048.55
2019-05-13T14:20:22.028Z,92042.17
2019-05-13T14:22:57.525Z,92037.81
2019-05-13T14:25:22.500Z,92035.84
2019-05-13T14:27:52.651Z,92034.87
2019-05-13T14:30:22.083Z,92044.33
2019-05-13T14:32:52.070Z,92041.97
2019-05-13T14:35:22.107Z,92041.42
2019-05-13T14:37:52.027Z,92036.34
2019-05-13T14:40:22.376Z,92031.95
2019-05-13T14:42:52.754Z,92039.05
2019-05-13T14:45:23.852Z,92045.03
2019-05-13T14:47:53.400Z,92039.11
2019-05-13T14:50:22.665Z,92036.78
2019-05-13T14:52:52.458Z,92040.54
2019-05-13T14:55:21.850Z,92033.69
2019-05-13T14:57:52.591Z,92036.27
2019-05-13T15:00:22.260Z,92029.03
2019-05-13T15:02:51.954Z,92028.19
2019-05-13T15:05:22.001Z,92026.25
2019-05-13T15:07:52.821Z,92027.59
2019-05-13T15:10:22.706Z,92018.88
2019-05-13T15:12:52.502Z,92015.34
2019-05-13T15:15:22.452Z,92006.63
2019-05-13T15:17:52.155Z,92014.52
2019-05-13T15:20:21.853Z,92010.91
2019-05-13T15:22:51.876Z,92010.77
2019-05-13T15:25:22.106Z,92007.53
2019-05-13T15:27:53.085Z,91994.77
2019-05-13T15:30:22.704Z,91995.81
2019-05-13T15:32:56.143Z,91996.28
2019-05-13T15:35:22.943Z,91993.81
2019-05-13T15:37:53.152Z,91993.44
2019-05-13T15:40:22.557Z,92001.95
2019-05-13T15:42:51.899Z,92006.48
2019-05-13T15:45:21.433Z,92000.80
2019-05-13T15:47:51.657Z,92000.36
2019-05-13T15:50:21.541Z,92001.20
2019-05-13T15:52:51.124Z,92002.98
2019-05-13T15:55:21.387Z,91998.19
2019-05-13T15:57:51.799Z,92005.35
2019-05-13T16:00:22.038Z,92007.37
2019-05-13T16:02:52.210Z,92015.38
2019-05-13T16:05:21.643Z,92018.84
2019-05-13T16:07:52.342Z,92025.10
2019-05-13T16:10:21.884Z,92021.97
2019-05-13T16:12:52.206Z,92021.80
2019-05-13T16:15:21.811Z,92020.14
2019-05-13T16:17:53.111Z,92021.19
2019-05-13T16:20:22.353Z,92019.73
2019-05-13T16:22:52.668Z,92015.27
2019-05-13T16:25:22.172Z,92014.36
2019-05-13T16:27:52.064Z,92019.38
2019-05-13T16:30:22.244Z,92018.32
2019-05-13T16:32:52.082Z,92023.57
2019-05-13T16:35:21.591Z,92022.01
2019-05-13T16:37:51.770Z,92023.66
2019-05-13T16:40:22.297Z,92027.89
2019-05-13T16:42:52.023Z,92024.88
2019-05-13T16:45:21.875Z,92032.59
2019-05-13T16:47:57.046Z,92026.03
2019-05-13T16:50:22.330Z,92028.54
2019-05-13T16:52:53.108Z,92033.94
2019-05-13T16:55:24.039Z,92045.13
2019-05-13T16:57:53.275Z,92046.56
2019-05-13T17:00:22.960Z,92042.50
2019-05-13T17:02:52.401Z,92040.55
2019-05-13T17:05:23.119Z,92043.80
2019-05-13T17:07:52.498Z,92044.02
2019-05-13T17:10:22.599Z,92049.06
2019-05-13T17:12:52.435Z,92057.25
2019-05-13T17:15:22.043Z,92050.03
2019-05-13T17:18:08.364Z,92048.84
2019-05-13T17:20:28.639Z,92044.97
2019-05-13T17:22:57.875Z,92044.86
2019-05-13T17:25:27.109Z,92055.00
2019-05-13T17:27:56.527Z,92054.29
2019-05-13T17:30:28.013Z,92060.70
2019-05-13T17:33:02.282Z,92059.67
2019-05-13T17:35:32.810Z,92059.25
2019-05-13T17:38:02.296Z,92051.34
2019-05-13T17:40:31.621Z,92053.35
2019-05-13T17:43:01.335Z,92054.80
2019-05-13T17:45:31.301Z,92057.03
2019-05-13T17:48:01.200Z,92057.67
2019-05-13T17:50:31.519Z,92052.41
2019-05-13T17:53:02.035Z,92049.53
2019-05-13T17:55:32.629Z,92049.53
2019-05-13T17:58:01.942Z,92048.98
2019-05-13T18:00:32.240Z,92060.25
2019-05-13T18:03:02.102Z,92063.47
2019-05-13T18:05:31.567Z,92061.48
2019-05-13T18:08:01.881Z,92073.56
2019-05-13T18:10:31.875Z,92076.87
2019-05-13T18:13:01.878Z,92075.88
2019-05-13T18:15:31.720Z,92082.30
2019-05-13T18:18:01.428Z,92099.98
2019-05-13T18:20:32.189Z,92095.56
2019-05-13T18:23:01.758Z,92098.80
2019-05-13T18:25:31.819Z,92106.20
2019-05-13T18:28:01.675Z,92108.71
2019-05-13T18:30:31.793Z,92106.23
2019-05-13T18:33:01.504Z,92114.03
2019-05-13T18:35:31.492Z,92113.94
2019-05-13T18:38:01.482Z,92120.53
2019-05-13T18:40:31.548Z,92118.42
2019-05-13T18:43:03.543Z,92123.70
2019-05-13T18:45:32.378Z,92119.56
2019-05-13T18:48:01.795Z,92131.15
2019-05-13T18:50:33.828Z,92127.97
2019-05-13T18:53:09.341Z,92132.50
2019-05-13T18:55:43.867Z,92129.64
2019-05-13T18:58:16.877Z,92129.28
2019-05-13T19:00:52.075Z,92125.80
2019-05-13T19:03:28.371Z,92125.55
2019-05-13T19:06:02.327Z,92118.64
2019-05-13T19:08:41.634Z,92124.81
2019-05-13T19:11:11.775Z,92121.98
2019-05-13T19:13:41.657Z,92110.73
2019-05-13T19:16:11.974Z,92104.42
2019-05-13T19:18:42.302Z,92110.02
2019-05-13T19:21:11.966Z,92104.42
2019-05-13T19:23:42.649Z,92104.30
2019-05-13T19:26:11.945Z,92110.86
2019-05-13T19:28:41.283Z,92122.44
2019-05-13T19:31:11.556Z,92114.39
2019-05-13T19:33:41.641Z,92110.02
2019-05-13T19:36:11.791Z,92119.15
2019-05-13T19:38:43.094Z,92112.59
2019-05-13T19:41:12.627Z,92108.41
2019-05-13T19:43:42.133Z,92105.90
2019-05-13T19:46:13.364Z,92101.91
2019-05-13T19:48:42.980Z,92098.89
2019-05-13T19:51:12.340Z,92099.20
2019-05-13T19:53:44.555Z,92091.52
2019-05-13T19:56:12.879Z,92074.22
2019-05-13T19:58:42.123Z,92066.31
2019-05-13T20:01:11.778Z,92055.95
2019-05-13T20:03:42.341Z,92054.09
2019-05-13T20:06:12.296Z,92055.89
2019-05-13T20:08:41.666Z,92050.87
2019-05-13T20:11:11.483Z,92049.21
2019-05-13T20:13:41.782Z,92039.06
2019-05-13T20:16:11.842Z,92037.96
2019-05-13T20:18:41.554Z,92036.30
2019-05-13T20:21:13.490Z,92040.86
2019-05-13T20:23:42.114Z,92028.25
2019-05-13T20:26:11.475Z,92018.35
2019-05-13T20:28:42.025Z,92015.27
2019-05-13T20:31:15.139Z,92023.30
2019-05-13T20:33:45.916Z,92019.11
2019-05-13T20:36:15.221Z,92013.58
2019-05-13T20:38:44.487Z,92016.34
2019-05-13T20:41:13.729Z,92023.66
2019-05-13T20:43:42.990Z,92026.88
2019-05-13T20:46:12.260Z,92024.68
2019-05-13T20:48:41.504Z,92019.86
2019-05-13T20:51:11.343Z,92022.93
2019-05-13T20:53:41.302Z,92024.31
2019-05-13T20:56:10.901Z,92017.38
2019-05-13T20:58:42.031Z,92014.11
2019-05-13T21:01:11.221Z,92009.53
2019-05-13T21:03:41.945Z,92020.17
2019-05-13T21:06:11.780Z,92022.30
2019-05-13T21:08:41.563Z,92021.59
2019-05-13T21:11:11.559Z,92019.03
2019-05-13T21:13:41.313Z,92035.07
2019-05-13T21:16:11.395Z,92048.25
2019-05-13T21:18:42.135Z,92051.91
2019-05-13T21:21:11.949Z,92050.17
2019-05-13T21:23:41.819Z,92053.39
2019-05-13T21:26:15.038Z,92045.31
2019-05-13T21:28:42.307Z,92048.14
2019-05-13T21:31:11.765Z,92043.45
2019-05-13T21:33:41.000Z,92044.51
2019-05-13T21:36:12.270Z,92051.84
2019-05-13T21:38:41.625Z,92053.66
2019-05-13T21:41:11.763Z,92056.00
2019-05-13T21:43:41.507Z,92047.41
2019-05-13T21:46:12.021Z,92047.62
2019-05-13T21:48:41.701Z,92054.99
2019-05-13T21:51:13.489Z,92054.36
2019-05-13T21:53:42.287Z,92053.08
2019-05-13T21:56:12.170Z,92040.88
2019-05-13T21:58:41.731Z,92044.51
2019-05-13T22:01:11.105Z,92053.23
2019-05-13T22:03:42.001Z,92055.92
2019-05-13T22:06:11.252Z,92056.98
2019-05-13T22:08:41.291Z,92063.58
2019-05-13T22:11:12.023Z,92061.67
2019-05-13T22:13:42.043Z,92071.59
2019-05-13T22:16:11.347Z,92064.36
2019-05-13T22:18:41.808Z,92064.49
2019-05-13T22:21:11.837Z,92068.35
2019-05-13T22:23:41.305Z,92065.52
2019-05-13T22:26:11.716Z,92051.67
2019-05-13T22:28:43.706Z,92053.14
2019-05-13T22:31:12.944Z,92043.64
2019-05-13T22:33:45.107Z,92033.16
2019-05-13T22:36:13.151Z,92042.52
2019-05-13T22:38:42.738Z,92045.58
2019-05-13T22:41:12.023Z,92035.09
2019-05-13T22:43:54.654Z,92035.30
2019-05-13T22:46:14.258Z,92033.27
2019-05-13T22:48:43.018Z,92027.73
2019-05-13T22:51:12.446Z,92018.91
2019-05-13T22:53:42.183Z,92020.39
2019-05-13T22:56:11.836Z,92008.84
2019-05-13T22:58:41.272Z,92006.11
2019-05-13T23:01:11.560Z,92008.73
2019-05-13T23:03:41.283Z,92004.77
2019-05-13T23:06:12.069Z,92002.08
2019-05-13T23:08:41.727Z,91991.98
2019-05-13T23:11:11.098Z,91988.61
2019-05-13T23:13:42.196Z,91995.70
2019-05-13T23:16:11.603Z,91992.52
2019-05-13T23:18:42.120Z,91992.59
2019-05-13T23:21:11.810Z,91994.43
2019-05-13T23:23:41.051Z,91994.72
2019-05-13T23:26:11.870Z,91993.65
2019-05-13T23:28:41.648Z,91996.69
2019-05-13T23:31:12.345Z,91988.47
2019-05-13T23:33:41.801Z,91984.38
2019-05-13T23:36:11.944Z,91990.82
2019-05-13T23:38:41.576Z,91988.75
2019-05-13T23:41:11.528Z,91981.33
2019-05-13T23:43:40.968Z,91972.49
2019-05-13T23:46:11.734Z,91965.39
2019-05-13T23:48:41.360Z,91964.47
2019-05-13T23:51:13.009Z,91972.70
2019-05-13T23:53:41.871Z,91969.43
2019-05-13T23:56:11.257Z,91964.56
2019-05-13T23:58:41.359Z,91958.05
